Time;durP1;ratioP1;P1;durP2;ratioP2;P2;SDS_P1;SDS_P2;PMS_P1;PMS_P2;Temp;Humidity;BMP_temperature;BMP_pressure;BME280_temperature;BME280_humidity;BME280_pressure;Samples;Min_cycle;Max_cycle;Signal;HPM_P1;HPM_P2
2022/02/18 00:02:12;;;;;;;11.40;1.98;;;;;;;;;;5032756;28;20538;-77
2022/02/18 00:04:38;;;;;;;4.68;0.93;;;;;;;;;;5034002;28;20025;-77
2022/02/18 00:07:03;;;;;;;7.85;1.02;;;;;;;;;;5033711;28;20029;-77
2022/02/18 00:09:29;;;;;;;8.05;1.02;;;;;;;;;;5034040;28;20059;-77
2022/02/18 00:11:54;;;;;;;2.92;0.60;;;;;;;;;;5033534;28;20491;-77
2022/02/18 00:14:19;;;;;;;4.03;0.82;;;;;;;;;;5033819;28;20025;-78
2022/02/18 00:16:44;;;;;;;5.95;1.17;;;;;;;;;;5034641;28;20023;-77
2022/02/18 00:19:09;;;;;;;6.43;1.00;;;;;;;;;;5033851;28;20028;-78
2022/02/18 00:21:35;;;;;;;3.00;1.05;;;;;;;;;;5033254;28;20047;-78
2022/02/18 00:24:00;;;;;;;6.82;0.90;;;;;;;;;;5033987;28;20022;-76
2022/02/18 00:26:26;;;;;;;4.05;0.90;;;;;;;;;;5034183;28;20113;-77
2022/02/18 00:28:51;;;;;;;5.35;1.00;;;;;;;;;;5034073;28;20088;-76
2022/02/18 00:31:16;;;;;;;8.23;0.93;;;;;;;;;;5034079;28;20049;-78
2022/02/18 00:33:41;;;;;;;6.95;1.65;;;;;;;;;;5034976;28;20029;-77
2022/02/18 00:36:07;;;;;;;5.20;1.10;;;;;;;;;;5035826;28;20017;-77
2022/02/18 00:38:32;;;;;;;3.58;0.90;;;;;;;;;;5032320;28;20022;-77
2022/02/18 00:40:57;;;;;;;8.27;1.30;;;;;;;;;;5033658;28;20484;-77
2022/02/18 00:43:22;;;;;;;7.07;1.10;;;;;;;;;;5032204;28;20389;-78
2022/02/18 00:45:48;;;;;;;5.30;1.02;;;;;;;;;;5033596;28;20025;-77
2022/02/18 00:48:13;;;;;;;5.93;1.05;;;;;;;;;;5032297;28;20028;-78
2022/02/18 00:50:39;;;;;;;5.97;0.90;;;;;;;;;;5032907;28;20017;-78
2022/02/18 00:53:05;;;;;;;3.53;0.80;;;;;;;;;;5032655;28;20013;-77
2022/02/18 00:55:30;;;;;;;6.53;0.82;;;;;;;;;;5032959;28;20097;-76
2022/02/18 00:57:56;;;;;;;5.00;1.08;;;;;;;;;;5032880;28;20044;-77
2022/02/18 01:00:21;;;;;;;4.85;0.70;;;;;;;;;;5032822;28;20115;-78
2022/02/18 01:02:46;;;;;;;6.40;0.93;;;;;;;;;;5031247;28;20021;-78
2022/02/18 01:05:12;;;;;;;4.22;0.90;;;;;;;;;;5032735;28;20021;-76
2022/02/18 01:07:37;;;;;;;3.92;0.60;;;;;;;;;;5031215;28;20029;-78
2022/02/18 01:10:03;;;;;;;4.03;1.02;;;;;;;;;;5032730;28;20083;-78
2022/02/18 01:12:28;;;;;;;2.70;0.95;;;;;;;;;;5031052;28;20025;-77
2022/02/18 01:14:53;;;;;;;8.45;1.00;;;;;;;;;;5031470;28;20032;-78
2022/02/18 01:17:20;;;;;;;5.10;1.13;;;;;;;;;;5031475;28;20388;-77
2022/02/18 01:19:45;;;;;;;4.40;0.82;;;;;;;;;;5032716;28;20021;-77
2022/02/18 01:22:10;;;;;;;3.97;0.70;;;;;;;;;;5031816;28;20100;-77
2022/02/18 01:24:37;;;;;;;2.78;0.77;;;;;;;;;;5032190;28;20112;-77
2022/02/18 01:27:02;;;;;;;4.32;0.80;;;;;;;;;;5030781;28;20025;-78
2022/02/18 01:29:27;;;;;;;5.20;0.90;;;;;;;;;;5031015;28;20029;-78
2022/02/18 01:31:53;;;;;;;4.65;0.75;;;;;;;;;;5031849;28;20017;-77
2022/02/18 01:34:18;;;;;;;3.13;0.85;;;;;;;;;;5033726;28;20496;-77
2022/02/18 01:36:43;;;;;;;4.95;0.75;;;;;;;;;;5035077;28;20027;-77
2022/02/18 01:39:10;;;;;;;9.10;1.00;;;;;;;;;;5036336;28;20491;-77
2022/02/18 01:41:35;;;;;;;5.72;1.00;;;;;;;;;;5036508;28;20017;-77
2022/02/18 01:44:00;;;;;;;3.28;0.68;;;;;;;;;;5036806;28;20021;-78
2022/02/18 01:46:26;;;;;;;5.75;0.90;;;;;;;;;;5036973;28;20014;-77
2022/02/18 01:48:53;;;;;;;2.60;0.68;;;;;;;;;;5036733;28;20017;-78
2022/02/18 01:51:19;;;;;;;3.78;0.70;;;;;;;;;;5036102;28;20107;-78
2022/02/18 01:53:45;;;;;;;4.88;1.15;;;;;;;;;;5035536;28;20017;-76
2022/02/18 01:56:10;;;;;;;10.18;0.63;;;;;;;;;;5034580;28;20100;-77
2022/02/18 01:58:36;;;;;;;4.68;1.27;;;;;;;;;;5036023;28;20488;-77
2022/02/18 02:01:02;;;;;;;4.13;1.00;;;;;;;;;;5036127;28;20020;-76
2022/02/18 02:03:27;;;;;;;4.43;0.93;;;;;;;;;;5035731;28;20452;-78
2022/02/18 02:05:55;;;;;;;3.25;0.90;;;;;;;;;;5035855;28;20488;-76
2022/02/18 02:08:21;;;;;;;5.05;0.68;;;;;;;;;;5035592;28;20029;-78
2022/02/18 02:10:46;;;;;;;5.35;0.90;;;;;;;;;;5035739;28;20047;-76
2022/02/18 02:13:26;;;;;;;4.35;1.10;;;;;;;;;;5035315;28;20408;-77
2022/02/18 02:15:51;;;;;;;5.00;0.95;;;;;;;;;;5035430;28;20028;-77
2022/02/18 02:18:19;;;;;;;5.07;0.90;;;;;;;;;;5034027;28;20021;-77
2022/02/18 02:20:44;;;;;;;3.45;0.90;;;;;;;;;;5035400;28;20029;-77
2022/02/18 02:23:10;;;;;;;5.13;1.10;;;;;;;;;;5035162;28;20542;-77
2022/02/18 02:25:35;;;;;;;6.88;1.10;;;;;;;;;;5035434;28;20441;-77
2022/02/18 02:28:00;;;;;;;6.10;1.00;;;;;;;;;;5035441;28;20021;-77
2022/02/18 02:30:26;;;;;;;8.10;1.20;;;;;;;;;;5035395;28;20027;-77
2022/02/18 02:32:51;;;;;;;4.63;0.75;;;;;;;;;;5034920;28;20023;-76
2022/02/18 02:35:16;;;;;;;10.90;1.08;;;;;;;;;;5035218;28;20497;-77
2022/02/18 02:37:41;;;;;;;5.93;1.00;;;;;;;;;;5034270;28;20032;-77
2022/02/18 02:40:06;;;;;;;7.53;1.20;;;;;;;;;;5035439;28;20101;-78
2022/02/18 02:42:32;;;;;;;5.05;1.05;;;;;;;;;;5035326;28;20071;-77
2022/02/18 02:44:57;;;;;;;4.70;0.90;;;;;;;;;;5034120;28;20449;-77
2022/02/18 02:47:22;;;;;;;7.68;1.40;;;;;;;;;;5035705;28;20018;-77
2022/02/18 02:49:47;;;;;;;8.95;1.35;;;;;;;;;;5036086;28;20079;-77
2022/02/18 02:52:13;;;;;;;6.05;1.02;;;;;;;;;;5034689;28;20385;-77
2022/02/18 02:54:38;;;;;;;1.98;0.80;;;;;;;;;;5035085;28;20064;-77
2022/02/18 02:57:03;;;;;;;10.55;1.50;;;;;;;;;;5034889;28;20095;-77
2022/02/18 02:59:29;;;;;;;5.35;0.95;;;;;;;;;;5035377;28;20032;-77
2022/02/18 03:01:54;;;;;;;3.40;1.02;;;;;;;;;;5035005;28;20503;-77
2022/02/18 03:04:19;;;;;;;5.10;1.10;;;;;;;;;;5035397;28;20072;-77
2022/02/18 03:06:45;;;;;;;3.72;0.90;;;;;;;;;;5034778;28;20101;-78
2022/02/18 03:09:10;;;;;;;8.10;1.05;;;;;;;;;;5034865;28;20370;-77
2022/02/18 03:11:36;;;;;;;3.92;0.93;;;;;;;;;;5033540;28;20535;-76
2022/02/18 03:14:03;;;;;;;5.20;0.80;;;;;;;;;;5034306;28;20109;-76
2022/02/18 03:16:28;;;;;;;4.78;1.23;;;;;;;;;;5034558;28;20107;-77
2022/02/18 03:18:53;;;;;;;8.60;1.25;;;;;;;;;;5034415;28;20010;-77
2022/02/18 03:21:18;;;;;;;4.43;0.93;;;;;;;;;;5033066;28;20080;-77
2022/02/18 03:23:46;;;;;;;8.52;0.90;;;;;;;;;;5034257;28;20074;-76
2022/02/18 03:26:12;;;;;;;15.18;1.23;;;;;;;;;;5032902;28;20013;-76
2022/02/18 03:28:38;;;;;;;9.15;1.20;;;;;;;;;;5034275;28;20029;-77
2022/02/18 03:31:03;;;;;;;5.35;1.20;;;;;;;;;;5032836;28;20499;-76
2022/02/18 03:33:28;;;;;;;2.65;1.00;;;;;;;;;;5033661;28;20545;-77
2022/02/18 03:35:54;;;;;;;10.63;1.20;;;;;;;;;;5032880;28;20022;-77
2022/02/18 03:38:20;;;;;;;10.68;1.05;;;;;;;;;;5034102;28;20017;-77
2022/02/18 03:40:46;;;;;;;8.15;1.02;;;;;;;;;;5034078;28;20354;-76
2022/02/18 03:43:11;;;;;;;5.57;1.05;;;;;;;;;;5034021;28;20024;-77
2022/02/18 03:45:37;;;;;;;5.00;0.88;;;;;;;;;;5034884;28;20018;-77
2022/02/18 03:48:02;;;;;;;6.97;0.88;;;;;;;;;;5035468;28;20029;-76
2022/02/18 03:50:27;;;;;;;6.88;1.13;;;;;;;;;;5035596;28;20025;-77
2022/02/18 03:52:54;;;;;;;3.53;1.20;;;;;;;;;;5033214;28;20021;-77
2022/02/18 03:55:19;;;;;;;9.95;1.58;;;;;;;;;;5033592;28;20028;-75
2022/02/18 03:57:44;;;;;;;4.97;0.73;;;;;;;;;;5032935;28;20017;-77
2022/02/18 04:00:11;;;;;;;6.97;1.02;;;;;;;;;;5033710;28;20104;-75
2022/02/18 04:02:36;;;;;;;9.95;1.40;;;;;;;;;;5033079;28;20144;-77
2022/02/18 04:05:01;;;;;;;8.27;1.30;;;;;;;;;;5033385;28;20049;-77
2022/02/18 04:07:27;;;;;;;11.93;1.60;;;;;;;;;;5034023;28;20033;-77
2022/02/18 04:09:52;;;;;;;4.40;0.90;;;;;;;;;;5034300;28;20017;-77
2022/02/18 04:12:17;;;;;;;7.18;1.33;;;;;;;;;;5033908;28;20033;-77
2022/02/18 04:14:42;;;;;;;8.93;1.30;;;;;;;;;;5033887;28;20040;-77
2022/02/18 04:17:07;;;;;;;6.00;0.98;;;;;;;;;;5032516;28;20028;-75
2022/02/18 04:19:33;;;;;;;7.95;1.35;;;;;;;;;;5034180;28;20113;-75
2022/02/18 04:21:58;;;;;;;4.30;0.77;;;;;;;;;;5033205;28;20027;-76
2022/02/18 04:24:23;;;;;;;6.53;1.33;;;;;;;;;;5033111;28;20505;-77
2022/02/18 04:26:48;;;;;;;9.27;1.67;;;;;;;;;;5032984;28;20087;-76
2022/02/18 04:29:13;;;;;;;4.93;1.48;;;;;;;;;;5031706;28;20075;-76
2022/02/18 04:31:38;;;;;;;7.57;1.13;;;;;;;;;;5032758;28;20033;-77
2022/02/18 04:34:04;;;;;;;5.15;1.13;;;;;;;;;;5032615;28;20029;-77
2022/02/18 04:36:29;;;;;;;10.13;2.17;;;;;;;;;;5032819;28;20504;-75
2022/02/18 04:38:54;;;;;;;5.15;1.15;;;;;;;;;;5032768;28;20254;-75
2022/02/18 04:41:20;;;;;;;9.63;1.20;;;;;;;;;;5033212;28;20048;-76
2022/02/18 04:43:45;;;;;;;10.10;1.25;;;;;;;;;;5033122;28;20381;-77
2022/02/18 04:46:11;;;;;;;5.18;1.00;;;;;;;;;;5033428;28;20673;-77
2022/02/18 04:48:36;;;;;;;6.00;1.30;;;;;;;;;;5033717;28;20049;-77
2022/02/18 04:51:01;;;;;;;8.35;0.98;;;;;;;;;;5033831;28;20096;-75
2022/02/18 04:53:26;;;;;;;4.78;1.15;;;;;;;;;;5034370;28;20072;-76
2022/02/18 04:55:51;;;;;;;12.00;1.80;;;;;;;;;;5032618;28;20500;-76
2022/02/18 04:58:17;;;;;;;4.80;1.20;;;;;;;;;;5032660;28;20476;-76
2022/02/18 05:00:42;;;;;;;6.30;1.20;;;;;;;;;;5032625;28;20469;-77
2022/02/18 05:03:07;;;;;;;4.10;0.82;;;;;;;;;;5032340;28;20049;-76
2022/02/18 05:05:33;;;;;;;5.78;1.17;;;;;;;;;;5031526;28;20420;-76
2022/02/18 05:07:58;;;;;;;6.10;1.20;;;;;;;;;;5032284;28;20033;-76
2022/02/18 05:10:23;;;;;;;6.80;1.85;;;;;;;;;;5032436;28;20033;-75
2022/02/18 05:12:48;;;;;;;4.75;1.25;;;;;;;;;;5033347;28;20075;-76
2022/02/18 05:15:13;;;;;;;7.78;1.27;;;;;;;;;;5032953;28;20071;-76
2022/02/18 05:17:38;;;;;;;5.93;1.02;;;;;;;;;;5032233;28;20040;-76
2022/02/18 05:20:04;;;;;;;7.20;1.55;;;;;;;;;;5032383;28;20055;-75
2022/02/18 05:22:29;;;;;;;6.60;1.20;;;;;;;;;;5030713;28;20025;-76
2022/02/18 05:24:54;;;;;;;6.65;1.05;;;;;;;;;;5032403;28;20025;-77
2022/02/18 05:27:20;;;;;;;6.88;1.30;;;;;;;;;;5032499;28;20474;-75
2022/02/18 05:29:45;;;;;;;5.57;1.25;;;;;;;;;;5032453;28;20025;-77
2022/02/18 05:32:10;;;;;;;5.03;1.10;;;;;;;;;;5031491;28;20032;-77
2022/02/18 05:34:36;;;;;;;7.47;1.67;;;;;;;;;;5032043;28;20021;-76
2022/02/18 05:37:01;;;;;;;7.90;1.73;;;;;;;;;;5032368;28;20591;-77
2022/02/18 05:39:26;;;;;;;4.85;1.17;;;;;;;;;;5032906;28;20036;-78
2022/02/18 05:41:51;;;;;;;7.70;0.95;;;;;;;;;;5032561;28;20025;-77
2022/02/18 05:44:17;;;;;;;4.93;1.30;;;;;;;;;;5031555;28;20120;-77
2022/02/18 05:46:42;;;;;;;12.50;1.27;;;;;;;;;;5032391;28;20032;-75
2022/02/18 05:49:07;;;;;;;11.75;1.85;;;;;;;;;;5032293;28;20034;-76
2022/02/18 05:51:33;;;;;;;7.60;1.00;;;;;;;;;;5032417;28;20488;-76
2022/02/18 05:53:59;;;;;;;6.93;1.25;;;;;;;;;;5032562;28;20509;-76
2022/02/18 05:56:24;;;;;;;6.30;1.75;;;;;;;;;;5033299;28;20030;-76
2022/02/18 05:58:49;;;;;;;7.15;1.05;;;;;;;;;;5031771;28;20025;-76
2022/02/18 06:01:14;;;;;;;8.52;1.10;;;;;;;;;;5031801;28;20017;-76
2022/02/18 06:03:40;;;;;;;3.45;1.02;;;;;;;;;;5031742;28;20022;-75
2022/02/18 06:06:05;;;;;;;7.05;1.02;;;;;;;;;;5031978;28;20032;-76
2022/02/18 06:08:30;;;;;;;8.80;1.50;;;;;;;;;;5032130;28;20029;-77
2022/02/18 06:10:55;;;;;;;12.20;2.00;;;;;;;;;;5030801;28;20095;-77
2022/02/18 06:13:21;;;;;;;10.65;1.70;;;;;;;;;;5031253;28;20030;-76
2022/02/18 06:15:46;;;;;;;5.35;1.15;;;;;;;;;;5030621;28;20443;-76
2022/02/18 06:18:11;;;;;;;6.47;1.15;;;;;;;;;;5032638;28;20033;-77
2022/02/18 06:20:37;;;;;;;7.00;1.58;;;;;;;;;;5033476;28;20018;-77
2022/02/18 06:23:02;;;;;;;8.05;1.98;;;;;;;;;;5035083;28;20455;-76
2022/02/18 06:25:27;;;;;;;6.38;1.73;;;;;;;;;;5035288;28;20028;-77
2022/02/18 06:28:06;;;;;;;4.57;1.15;;;;;;;;;;5035173;28;20030;-78
2022/02/18 06:30:31;;;;;;;4.70;1.45;;;;;;;;;;5035314;28;20075;-77
2022/02/18 06:32:57;;;;;;;7.75;2.08;;;;;;;;;;5035026;28;20075;-77
2022/02/18 06:35:22;;;;;;;11.38;1.90;;;;;;;;;;5035369;28;20047;-76
2022/02/18 06:37:47;;;;;;;7.07;1.33;;;;;;;;;;5035265;28;20092;-76
2022/02/18 06:40:13;;;;;;;5.70;1.30;;;;;;;;;;5035003;28;20465;-76
2022/02/18 06:42:38;;;;;;;9.77;1.25;;;;;;;;;;5034685;28;20098;-76
2022/02/18 06:45:03;;;;;;;6.97;1.02;;;;;;;;;;5035096;28;20017;-78
2022/02/18 06:47:29;;;;;;;7.07;1.33;;;;;;;;;;5034785;28;20022;-77
2022/02/18 06:49:54;;;;;;;6.13;1.30;;;;;;;;;;5034984;28;20029;-76
2022/02/18 06:52:19;;;;;;;11.35;2.00;;;;;;;;;;5034969;28;20472;-75
2022/02/18 06:54:44;;;;;;;5.40;1.38;;;;;;;;;;5035093;28;20021;-76
2022/02/18 06:57:10;;;;;;;10.10;2.72;;;;;;;;;;5034222;28;20544;-77
2022/02/18 06:59:35;;;;;;;5.90;1.40;;;;;;;;;;5035824;28;20078;-78
2022/02/18 07:02:01;;;;;;;7.00;1.38;;;;;;;;;;5034407;28;20060;-76
2022/02/18 07:04:26;;;;;;;8.55;2.08;;;;;;;;;;5034787;28;20040;-77
2022/02/18 07:06:52;;;;;;;9.02;1.58;;;;;;;;;;5034263;28;20400;-76
2022/02/18 07:09:17;;;;;;;12.57;1.80;;;;;;;;;;5033419;28;20388;-76
2022/02/18 07:11:42;;;;;;;6.40;1.33;;;;;;;;;;5034668;28;20048;-77
2022/02/18 07:14:09;;;;;;;13.63;1.60;;;;;;;;;;5034550;28;20383;-77
2022/02/18 07:16:35;;;;;;;14.07;1.52;;;;;;;;;;5035322;28;20018;-76
2022/02/18 07:19:00;;;;;;;8.65;2.00;;;;;;;;;;5033581;28;20096;-76
2022/02/18 07:21:25;;;;;;;10.75;1.60;;;;;;;;;;5036071;28;20483;-76
2022/02/18 07:23:50;;;;;;;7.47;1.55;;;;;;;;;;5033820;28;20017;-76
2022/02/18 07:26:16;;;;;;;8.00;1.70;;;;;;;;;;5033034;28;20552;-77
2022/02/18 07:28:41;;;;;;;9.48;1.40;;;;;;;;;;5034108;28;20013;-76
2022/02/18 07:31:06;;;;;;;8.25;1.70;;;;;;;;;;5032160;28;20028;-75
2022/02/18 07:33:31;;;;;;;8.48;1.50;;;;;;;;;;5033195;28;20014;-76
2022/02/18 07:35:56;;;;;;;9.07;1.63;;;;;;;;;;5034009;28;20421;-76
2022/02/18 07:38:22;;;;;;;9.38;1.30;;;;;;;;;;5033934;28;20064;-77
2022/02/18 07:40:47;;;;;;;9.82;1.92;;;;;;;;;;5034081;28;20010;-75
2022/02/18 07:43:12;;;;;;;13.02;2.47;;;;;;;;;;5033928;28;20092;-76
2022/02/18 07:45:37;;;;;;;7.88;1.58;;;;;;;;;;5032485;28;20469;-76
2022/02/18 07:48:03;;;;;;;8.63;1.70;;;;;;;;;;5033758;28;20024;-76
2022/02/18 07:50:28;;;;;;;8.45;1.50;;;;;;;;;;5033991;28;20029;-75
2022/02/18 07:52:53;;;;;;;4.05;1.52;;;;;;;;;;5033328;28;20029;-76
2022/02/18 07:55:18;;;;;;;7.85;1.35;;;;;;;;;;5034196;28;20028;-75
2022/02/18 07:57:44;;;;;;;7.70;1.50;;;;;;;;;;5034988;28;20354;-75
2022/02/18 08:00:09;;;;;;;12.00;2.22;;;;;;;;;;5035853;28;20048;-76
2022/02/18 08:02:34;;;;;;;12.70;1.80;;;;;;;;;;5032085;28;20382;-75
2022/02/18 08:05:00;;;;;;;9.13;1.95;;;;;;;;;;5031997;28;20045;-76
2022/02/18 08:07:25;;;;;;;6.70;1.65;;;;;;;;;;5031682;28;20128;-76
2022/02/18 08:09:50;;;;;;;8.50;1.30;;;;;;;;;;5033503;28;20051;-77
2022/02/18 08:12:18;;;;;;;15.70;1.92;;;;;;;;;;5032918;28;20028;-77
2022/02/18 08:14:43;;;;;;;13.13;2.05;;;;;;;;;;5033224;28;20478;-76
2022/02/18 08:17:08;;;;;;;8.25;1.33;;;;;;;;;;5033244;28;20163;-77
2022/02/18 08:19:34;;;;;;;12.13;3.33;;;;;;;;;;5032285;28;20163;-76
2022/02/18 08:22:02;;;;;;;10.25;1.90;;;;;;;;;;5032905;28;20079;-77
2022/02/18 08:24:27;;;;;;;9.97;2.50;;;;;;;;;;5032876;28;20043;-77
2022/02/18 08:26:53;;;;;;;24.17;3.90;;;;;;;;;;5033142;28;20031;-76
2022/02/18 08:29:21;;;;;;;15.00;3.22;;;;;;;;;;5033060;28;20021;-76
2022/02/18 08:31:46;;;;;;;13.20;2.95;;;;;;;;;;5033003;28;20020;-77
2022/02/18 08:34:12;;;;;;;14.05;2.53;;;;;;;;;;5031600;28;20021;-76
2022/02/18 08:36:37;;;;;;;14.73;3.47;;;;;;;;;;5032746;28;20048;-77
2022/02/18 08:39:03;;;;;;;19.15;3.72;;;;;;;;;;5033017;28;20059;-76
2022/02/18 08:41:29;;;;;;;14.70;2.45;;;;;;;;;;5032498;28;20017;-75
2022/02/18 08:43:57;;;;;;;9.45;2.22;;;;;;;;;;5032456;28;20019;-77
2022/02/18 08:46:22;;;;;;;11.33;2.47;;;;;;;;;;5032757;28;20077;-76
2022/02/18 08:48:47;;;;;;;10.18;2.13;;;;;;;;;;5032670;28;20484;-77
2022/02/18 08:51:12;;;;;;;8.95;2.00;;;;;;;;;;5032411;28;20021;-77
2022/02/18 08:53:38;;;;;;;10.50;1.88;;;;;;;;;;5032412;28;20021;-76
2022/02/18 08:56:03;;;;;;;16.35;2.20;;;;;;;;;;5031559;28;20159;-76
2022/02/18 08:58:28;;;;;;;10.10;1.95;;;;;;;;;;5033711;28;20025;-77
2022/02/18 09:00:54;;;;;;;6.85;1.73;;;;;;;;;;5035359;28;20017;-75
2022/02/18 09:03:19;;;;;;;11.57;2.00;;;;;;;;;;5031994;28;20484;-75
2022/02/18 09:05:44;;;;;;;13.60;2.05;;;;;;;;;;5032291;28;20013;-77
2022/02/18 09:08:09;;;;;;;13.52;2.22;;;;;;;;;;5032498;28;20562;-77
2022/02/18 09:10:35;;;;;;;8.05;1.40;;;;;;;;;;5032444;28;20017;-77
2022/02/18 09:13:00;;;;;;;10.13;1.88;;;;;;;;;;5032111;28;20028;-76
2022/02/18 09:15:25;;;;;;;9.68;2.88;;;;;;;;;;5032410;28;20104;-77
2022/02/18 09:17:50;;;;;;;15.40;2.72;;;;;;;;;;5032775;28;20051;-77
2022/02/18 09:20:15;;;;;;;9.68;2.90;;;;;;;;;;5032887;28;20056;-76
2022/02/18 09:22:41;;;;;;;17.75;4.20;;;;;;;;;;5031534;28;20076;-77
2022/02/18 09:25:06;;;;;;;15.10;3.33;;;;;;;;;;5033824;28;20507;-78
2022/02/18 09:27:32;;;;;;;16.05;2.80;;;;;;;;;;5034158;28;20034;-76
2022/02/18 09:29:59;;;;;;;14.38;2.50;;;;;;;;;;5033674;28;20093;-77
2022/02/18 09:32:24;;;;;;;11.05;2.08;;;;;;;;;;5031750;28;20022;-77
2022/02/18 09:34:50;;;;;;;16.08;3.40;;;;;;;;;;5032655;28;20017;-78
2022/02/18 09:37:16;;;;;;;13.35;1.77;;;;;;;;;;5033032;28;20020;-75
2022/02/18 09:39:42;;;;;;;10.13;2.15;;;;;;;;;;5033096;28;20021;-76
2022/02/18 09:42:08;;;;;;;7.22;1.95;;;;;;;;;;5032359;28;20450;-76
2022/02/18 09:44:35;;;;;;;9.30;2.03;;;;;;;;;;5032313;28;20021;-76
2022/02/18 09:47:00;;;;;;;10.13;2.08;;;;;;;;;;5031111;28;20025;-76
2022/02/18 09:49:26;;;;;;;11.43;2.00;;;;;;;;;;5033097;28;20025;-77
2022/02/18 09:51:52;;;;;;;9.00;2.40;;;;;;;;;;5033380;28;20083;-76
2022/02/18 09:54:17;;;;;;;12.70;2.20;;;;;;;;;;5032091;28;20086;-75
2022/02/18 09:56:43;;;;;;;12.75;2.30;;;;;;;;;;5037904;28;20481;-75
2022/02/18 09:59:10;;;;;;;12.55;2.70;;;;;;;;;;5036552;28;20037;-77
2022/02/18 10:01:35;;;;;;;18.08;2.50;;;;;;;;;;5038051;28;20044;-76
2022/02/18 10:04:01;;;;;;;8.77;1.77;;;;;;;;;;5036921;28;20014;-78
2022/02/18 10:06:28;;;;;;;12.98;2.60;;;;;;;;;;5038013;28;20017;-78
2022/02/18 10:08:53;;;;;;;10.32;2.15;;;;;;;;;;5036602;28;20472;-77
2022/02/18 10:11:19;;;;;;;14.98;2.83;;;;;;;;;;5036838;28;20155;-76
2022/02/18 10:13:47;;;;;;;10.07;1.98;;;;;;;;;;5035081;28;20018;-76
2022/02/18 10:16:19;;;;;;;17.52;3.17;;;;;;;;;;5036063;28;20026;-77
2022/02/18 10:18:46;;;;;;;16.20;2.65;;;;;;;;;;5037726;28;20025;-77
2022/02/18 10:21:28;;;;;;;13.85;2.60;;;;;;;;;;5036434;28;20469;-75
2022/02/18 10:24:04;;;;;;;13.85;2.65;;;;;;;;;;5036087;28;20485;-76
2022/02/18 10:26:38;;;;;;;10.02;2.13;;;;;;;;;;5038294;28;20088;-77
2022/02/18 10:29:07;;;;;;;9.60;2.30;;;;;;;;;;5038272;28;20075;-77
2022/02/18 10:31:33;;;;;;;18.15;2.60;;;;;;;;;;5035241;28;20041;-77
2022/02/18 10:34:01;;;;;;;16.52;2.88;;;;;;;;;;5034191;28;20030;-76
2022/02/18 10:36:37;;;;;;;15.13;2.20;;;;;;;;;;5036127;28;20152;-75
2022/02/18 10:39:21;;;;;;;18.13;3.30;;;;;;;;;;5034437;28;20438;-76
2022/02/18 10:41:50;;;;;;;12.13;3.42;;;;;;;;;;5035227;28;20017;-76
2022/02/18 10:44:16;;;;;;;15.40;3.38;;;;;;;;;;5035176;28;20121;-77
2022/02/18 10:46:45;;;;;;;17.23;2.70;;;;;;;;;;5035381;28;20045;-76
2022/02/18 10:49:19;;;;;;;15.57;3.40;;;;;;;;;;5034130;28;20029;-77
2022/02/18 10:51:46;;;;;;;12.23;2.15;;;;;;;;;;5034420;28;20022;-77
2022/02/18 10:54:11;;;;;;;13.35;2.90;;;;;;;;;;5035367;28;20084;-77
2022/02/18 10:56:36;;;;;;;20.38;3.08;;;;;;;;;;5035584;28;20045;-77
2022/02/18 10:59:01;;;;;;;18.38;3.03;;;;;;;;;;5035396;28;20016;-77
2022/02/18 11:01:27;;;;;;;18.80;3.05;;;;;;;;;;5035553;28;20473;-75
2022/02/18 11:04:03;;;;;;;18.50;3.40;;;;;;;;;;5034151;28;20076;-76
2022/02/18 11:06:32;;;;;;;18.70;2.92;;;;;;;;;;5035458;28;20021;-77
2022/02/18 11:11:36;;;;;;;21.58;4.20;;;;;;;;;;5582203;22;19921;-91
2022/02/18 11:14:15;;;;;;;20.85;3.05;;;;;;;;;;5035807;28;20041;-92
2022/02/18 11:17:07;;;;;;;17.33;3.05;;;;;;;;;;5035559;28;20033;-94
2022/02/18 11:19:35;;;;;;;25.05;4.10;;;;;;;;;;5036121;28;20044;-92
2022/02/18 11:22:24;;;;;;;18.55;2.58;;;;;;;;;;5053319;28;20068;-92
2022/02/18 11:27:54;;;;;;;22.92;3.22;;;;;;;;;;5359147;22;20040;-91
2022/02/18 11:30:21;;;;;;;15.60;3.92;;;;;;;;;;5085124;22;20025;-92
2022/02/18 11:33:08;;;;;;;18.35;3.00;;;;;;;;;;5677671;22;20061;-91
2022/02/18 11:35:52;;;;;;;33.55;3.63;;;;;;;;;;5037358;28;20033;-92
2022/02/18 11:38:22;;;;;;;28.00;4.20;;;;;;;;;;5070232;28;20029;-94
2022/02/18 11:41:09;;;;;;;28.33;3.58;;;;;;;;;;5052942;28;20030;-94
2022/02/18 11:43:54;;;;;;;19.65;3.53;;;;;;;;;;5050130;28;20029;-94
2022/02/18 11:46:27;;;;;;;32.00;4.38;;;;;;;;;;5052487;28;20009;-93
2022/02/18 11:49:08;;;;;;;22.85;3.45;;;;;;;;;;5051920;28;20018;-93
2022/02/18 11:51:41;;;;;;;25.25;4.10;;;;;;;;;;5051736;28;20049;-93
2022/02/18 11:54:22;;;;;;;25.27;4.30;;;;;;;;;;5047489;28;20026;-91
2022/02/18 11:57:01;;;;;;;24.13;3.65;;;;;;;;;;5044503;28;20085;-94
2022/02/18 11:59:49;;;;;;;23.60;3.63;;;;;;;;;;5037236;28;20494;-93
2022/02/18 12:02:14;;;;;;;32.22;5.00;;;;;;;;;;5040419;28;20029;-94
2022/02/18 12:04:43;;;;;;;24.05;3.55;;;;;;;;;;5044090;28;20010;-92
2022/02/18 12:07:15;;;;;;;18.15;2.80;;;;;;;;;;5047947;28;20028;-92
2022/02/18 12:09:50;;;;;;;22.05;3.60;;;;;;;;;;5050910;28;20025;-90
2022/02/18 12:12:33;;;;;;;24.58;2.80;;;;;;;;;;5051854;28;20026;-91
2022/02/18 12:15:09;;;;;;;24.88;3.85;;;;;;;;;;5043723;28;20025;-92
2022/02/18 12:17:38;;;;;;;22.70;3.38;;;;;;;;;;5045256;28;20081;-92
2022/02/18 12:20:20;;;;;;;22.65;4.07;;;;;;;;;;5050512;28;20018;-90
2022/02/18 12:22:46;;;;;;;19.73;3.58;;;;;;;;;;5028450;28;20113;-90
2022/02/18 12:25:22;;;;;;;19.83;3.45;;;;;;;;;;5037057;28;20030;-91
2022/02/18 12:27:48;;;;;;;25.30;4.03;;;;;;;;;;5033756;28;20017;-92
2022/02/18 12:30:23;;;;;;;20.77;4.05;;;;;;;;;;5034687;28;20435;-95
2022/02/18 12:32:53;;;;;;;21.77;3.75;;;;;;;;;;5036145;28;20029;-93
2022/02/18 12:35:24;;;;;;;29.45;4.25;;;;;;;;;;5038067;28;20128;-94
2022/02/18 12:37:50;;;;;;;23.10;3.50;;;;;;;;;;5036985;28;20022;-94
2022/02/18 12:40:16;;;;;;;26.45;3.42;;;;;;;;;;5033228;28;20025;-94
2022/02/18 12:42:43;;;;;;;21.90;3.53;;;;;;;;;;5034550;28;20018;-95
2022/02/18 12:45:12;;;;;;;18.02;3.13;;;;;;;;;;5033731;28;20032;-94
2022/02/18 12:47:37;;;;;;;;;;;;;;;;;;5032593;28;20053;-95
2022/02/18 12:50:07;;;;;;;21.13;3.55;;;;;;;;;;5015645;28;19909;-92
2022/02/18 12:52:33;;;;;;;18.65;3.72;;;;;;;;;;5032313;28;20018;-95
2022/02/18 12:55:02;;;;;;;20.00;3.63;;;;;;;;;;5043680;28;20054;-92
2022/02/18 12:57:29;;;;;;;18.48;3.83;;;;;;;;;;5038122;28;20053;-93
2022/02/18 13:00:08;;;;;;;22.40;4.20;;;;;;;;;;5043773;28;20075;-92
2022/02/18 13:02:52;;;;;;;27.10;4.63;;;;;;;;;;5046422;28;20032;-90
2022/02/18 13:05:25;;;;;;;18.05;3.22;;;;;;;;;;5050019;28;20094;-88
2022/02/18 13:07:55;;;;;;;19.20;3.08;;;;;;;;;;5047386;28;20133;-89
2022/02/18 13:12:56;;;;;;;10.63;3.15;;;;;;;;;;5470006;22;20049;-90
2022/02/18 13:15:35;;;;;;;13.07;2.72;;;;;;;;;;5089363;28;20022;-91
2022/02/18 13:20:52;;;;;;;9.90;2.45;;;;;;;;;;5362951;22;20053;-89
2022/02/18 13:26:13;;;;;;;10.68;2.53;;;;;;;;;;5056424;22;20045;-91
2022/02/18 13:28:45;;;;;;;10.77;1.73;;;;;;;;;;5048738;28;20071;-91
2022/02/18 13:31:12;;;;;;;13.18;2.70;;;;;;;;;;5146592;22;20001;-94
2022/02/18 13:33:48;;;;;;;18.15;3.83;;;;;;;;;;5051471;28;20048;-88
2022/02/18 13:36:15;;;;;;;10.77;2.63;;;;;;;;;;5050696;28;20068;-92
2022/02/18 13:39:00;;;;;;;12.02;1.98;;;;;;;;;;5050648;28;20025;-88
2022/02/18 13:41:27;;;;;;;8.48;2.53;;;;;;;;;;5052885;28;20016;-90
2022/02/18 13:43:54;;;;;;;11.82;2.10;;;;;;;;;;5045957;28;20049;-91
2022/02/18 13:46:27;;;;;;;7.18;2.58;;;;;;;;;;5047135;28;20018;-93
2022/02/18 13:48:54;;;;;;;7.53;1.45;;;;;;;;;;5047398;28;20045;-91
2022/02/18 13:51:22;;;;;;;7.35;1.40;;;;;;;;;;5045938;28;20006;-93
2022/02/18 13:53:56;;;;;;;6.72;1.58;;;;;;;;;;5048760;28;20030;-93
2022/02/18 13:56:32;;;;;;;5.53;1.08;;;;;;;;;;5049097;28;20037;-91
2022/02/18 13:59:17;;;;;;;7.00;1.67;;;;;;;;;;5396812;22;20025;-94
2022/02/18 14:01:48;;;;;;;9.30;1.90;;;;;;;;;;5053008;28;20014;-94
2022/02/18 14:04:28;;;;;;;9.35;1.80;;;;;;;;;;5051224;28;20453;-93
2022/02/18 14:07:02;;;;;;;6.78;1.48;;;;;;;;;;5050407;28;20021;-90
2022/02/18 14:09:44;;;;;;;5.45;1.52;;;;;;;;;;5056099;28;20036;-89
2022/02/18 14:12:17;;;;;;;5.97;1.40;;;;;;;;;;5048790;28;20029;-93
2022/02/18 14:15:25;;;;;;;4.45;1.48;;;;;;;;;;5053838;28;20025;-88
2022/02/18 14:17:51;;;;;;;5.00;1.30;;;;;;;;;;5029940;28;20041;-89
2022/02/18 14:23:01;;;;;;;6.00;1.55;;;;;;;;;;5168055;22;20432;-91
2022/02/18 14:25:34;;;;;;;5.53;1.05;;;;;;;;;;5051997;28;20006;-88
2022/02/18 14:28:15;;;;;;;5.72;1.23;;;;;;;;;;5054726;28;20074;-88
2022/02/18 14:30:42;;;;;;;3.90;1.30;;;;;;;;;;5023676;28;20018;-91
2022/02/18 14:33:27;;;;;;;5.20;1.52;;;;;;;;;;5027926;28;20022;-88
2022/02/18 14:35:54;;;;;;;6.28;1.15;;;;;;;;;;5031998;28;20049;-88
2022/02/18 14:38:20;;;;;;;3.70;1.23;;;;;;;;;;5027176;28;20022;-87
2022/02/18 14:40:53;;;;;;;5.35;0.90;;;;;;;;;;5025390;28;20057;-89
2022/02/18 14:43:19;;;;;;;2.47;1.15;;;;;;;;;;5024753;28;20018;-88
2022/02/18 14:45:44;;;;;;;5.00;1.13;;;;;;;;;;5024259;28;20025;-90
2022/02/18 14:48:13;;;;;;;4.55;1.00;;;;;;;;;;5023452;28;20105;-90
2022/02/18 14:50:42;;;;;;;5.75;1.52;;;;;;;;;;5021391;28;20473;-87
2022/02/18 14:53:09;;;;;;;6.47;1.30;;;;;;;;;;5019563;28;20034;-89
2022/02/18 14:55:35;;;;;;;4.03;1.30;;;;;;;;;;5022298;28;20022;-88
2022/02/18 14:58:01;;;;;;;3.30;1.20;;;;;;;;;;5020300;28;20033;-91